sensor_id;sensor_type;location;lat;lon;timestamp;temperature;humidity
30308;DHT22;17114;52.314;8.910;2023-12-22T07:40:47;5.10;99.90
30308;DHT22;17114;52.314;8.910;2023-12-22T07:43:15;5.20;99.90
30308;DHT22;17114;52.314;8.910;2023-12-22T07:45:42;5.20;99.90
30308;DHT22;17114;52.314;8.910;2023-12-22T07:48:09;5.30;99.90
30308;DHT22;17114;52.314;8.910;2023-12-22T07:50:36;5.30;99.90
30308;DHT22;17114;52.314;8.910;2023-12-22T07:53:03;5.40;99.90
30308;DHT22;17114;52.314;8.910;2023-12-22T07:55:34;5.40;99.90
30308;DHT22;17114;52.314;8.910;2023-12-22T07:58:01;5.40;99.90
30308;DHT22;17114;52.314;8.910;2023-12-22T08:00:28;5.50;99.90
30308;DHT22;17114;52.314;8.910;2023-12-22T08:02:55;5.50;99.90
30308;DHT22;17114;52.314;8.910;2023-12-22T08:05:22;5.50;99.90
30308;DHT22;17114;52.314;8.910;2023-12-22T08:07:49;5.50;99.90
30308;DHT22;17114;52.314;8.910;2023-12-22T08:10:16;5.50;99.90
30308;DHT22;17114;52.314;8.910;2023-12-22T08:12:44;5.50;99.90
30308;DHT22;17114;52.314;8.910;2023-12-22T08:15:11;5.50;99.90
30308;DHT22;17114;52.314;8.910;2023-12-22T08:17:51;5.60;99.90
30308;DHT22;17114;52.314;8.910;2023-12-22T08:20:19;5.50;99.90
30308;DHT22;17114;52.314;8.910;2023-12-22T08:22:54;5.60;99.90
30308;DHT22;17114;52.314;8.910;2023-12-22T08:25:23;5.70;99.90
30308;DHT22;17114;52.314;8.910;2023-12-22T08:27:50;5.60;99.90
30308;DHT22;17114;52.314;8.910;2023-12-22T08:30:17;5.70;99.90
30308;DHT22;17114;52.314;8.910;2023-12-22T08:32:44;5.70;99.90
30308;DHT22;17114;52.314;8.910;2023-12-22T08:35:11;5.70;99.90
30308;DHT22;17114;52.314;8.910;2023-12-22T08:37:38;5.70;99.90
30308;DHT22;17114;52.314;8.910;2023-12-22T08:40:06;5.80;99.90
30308;DHT22;17114;52.314;8.910;2023-12-22T08:42:33;5.80;99.90
30308;DHT22;17114;52.314;8.910;2023-12-22T08:45:00;5.80;99.90
30308;DHT22;17114;52.314;8.910;2023-12-22T08:47:29;5.80;99.90
30308;DHT22;17114;52.314;8.910;2023-12-22T08:49:56;5.90;99.90
30308;DHT22;17114;52.314;8.910;2023-12-22T08:52:23;5.90;99.90
30308;DHT22;17114;52.314;8.910;2023-12-22T08:54:50;5.90;99.90
30308;DHT22;17114;52.314;8.910;2023-12-22T08:57:17;6.10;99.90
30308;DHT22;17114;52.314;8.910;2023-12-22T08:59:44;5.90;99.90
30308;DHT22;17114;52.314;8.910;2023-12-22T09:02:11;5.90;99.90
30308;DHT22;17114;52.314;8.910;2023-12-22T09:04:38;6.00;99.90
30308;DHT22;17114;52.314;8.910;2023-12-22T09:07:05;5.80;99.90
30308;DHT22;17114;52.314;8.910;2023-12-22T09:09:32;5.70;99.90
30308;DHT22;17114;52.314;8.910;2023-12-22T09:12:00;5.70;99.90
30308;DHT22;17114;52.314;8.910;2023-12-22T09:14:27;5.60;99.90
30308;DHT22;17114;52.314;8.910;2023-12-22T09:16:54;5.60;99.90
30308;DHT22;17114;52.314;8.910;2023-12-22T09:19:22;5.60;99.90
30308;DHT22;17114;52.314;8.910;2023-12-22T09:21:50;5.60;99.90
30308;DHT22;17114;52.314;8.910;2023-12-22T09:24:17;5.60;99.90
30308;DHT22;17114;52.314;8.910;2023-12-22T09:26:44;5.60;99.90
30308;DHT22;17114;52.314;8.910;2023-12-22T09:29:11;5.60;99.90
30308;DHT22;17114;52.314;8.910;2023-12-22T09:31:38;5.60;99.90
30308;DHT22;17114;52.314;8.910;2023-12-22T09:34:05;5.60;99.90
30308;DHT22;17114;52.314;8.910;2023-12-22T09:36:33;5.60;99.90
30308;DHT22;17114;52.314;8.910;2023-12-22T09:39:00;5.50;99.90
30308;DHT22;17114;52.314;8.910;2023-12-22T09:41:27;5.50;99.90
30308;DHT22;17114;52.314;8.910;2023-12-22T09:43:56;5.50;99.90
30308;DHT22;17114;52.314;8.910;2023-12-22T09:46:25;5.50;99.90
30308;DHT22;17114;52.314;8.910;2023-12-22T09:48:53;5.40;99.90
30308;DHT22;17114;52.314;8.910;2023-12-22T09:51:21;5.40;99.90
30308;DHT22;17114;52.314;8.910;2023-12-22T09:53:49;5.30;99.90
30308;DHT22;17114;52.314;8.910;2023-12-22T09:56:18;5.40;99.90
30308;DHT22;17114;52.314;8.910;2023-12-22T09:58:45;5.40;99.90
30308;DHT22;17114;52.314;8.910;2023-12-22T10:01:14;5.50;99.90
30308;DHT22;17114;52.314;8.910;2023-12-22T10:03:42;5.50;99.90
30308;DHT22;17114;52.314;8.910;2023-12-22T10:06:13;5.50;99.90
30308;DHT22;17114;52.314;8.910;2023-12-22T10:08:40;5.50;99.90
30308;DHT22;17114;52.314;8.910;2023-12-22T10:11:08;5.60;99.90
30308;DHT22;17114;52.314;8.910;2023-12-22T10:13:37;5.80;99.90
30308;DHT22;17114;52.314;8.910;2023-12-22T10:16:06;5.90;99.90
30308;DHT22;17114;52.314;8.910;2023-12-22T10:18:33;6.00;99.90
30308;DHT22;17114;52.314;8.910;2023-12-22T10:21:00;6.10;99.90
30308;DHT22;17114;52.314;8.910;2023-12-22T10:23:27;6.20;99.90
30308;DHT22;17114;52.314;8.910;2023-12-22T10:25:57;6.20;99.90
30308;DHT22;17114;52.314;8.910;2023-12-22T10:28:27;6.30;99.90
30308;DHT22;17114;52.314;8.910;2023-12-22T10:30:56;6.30;99.90
30308;DHT22;17114;52.314;8.910;2023-12-22T10:33:25;6.30;99.90
30308;DHT22;17114;52.314;8.910;2023-12-22T10:35:54;6.30;99.90
30308;DHT22;17114;52.314;8.910;2023-12-22T10:38:21;6.40;99.90
30308;DHT22;17114;52.314;8.910;2023-12-22T10:40:49;6.40;99.90
30308;DHT22;17114;52.314;8.910;2023-12-22T10:43:16;6.50;99.90
30308;DHT22;17114;52.314;8.910;2023-12-22T10:45:43;6.40;99.90
30308;DHT22;17114;52.314;8.910;2023-12-22T10:48:11;6.50;99.90
30308;DHT22;17114;52.314;8.910;2023-12-22T10:50:39;6.50;99.90
30308;DHT22;17114;52.314;8.910;2023-12-22T10:53:07;6.50;99.90
30308;DHT22;17114;52.314;8.910;2023-12-22T10:55:36;6.50;99.90
30308;DHT22;17114;52.314;8.910;2023-12-22T10:58:03;6.40;99.90
30308;DHT22;17114;52.314;8.910;2023-12-22T11:00:37;6.50;99.90
30308;DHT22;17114;52.314;8.910;2023-12-22T11:03:07;6.50;99.90
30308;DHT22;17114;52.314;8.910;2023-12-22T11:05:39;6.50;99.90
30308;DHT22;17114;52.314;8.910;2023-12-22T11:08:07;6.50;99.90
30308;DHT22;17114;52.314;8.910;2023-12-22T11:10:42;6.50;99.90
30308;DHT22;17114;52.314;8.910;2023-12-22T11:13:10;6.50;99.90
30308;DHT22;17114;52.314;8.910;2023-12-22T11:15:40;6.50;99.90
30308;DHT22;17114;52.314;8.910;2023-12-22T11:18:08;6.60;99.90
30308;DHT22;17114;52.314;8.910;2023-12-22T11:20:37;6.50;99.90
30308;DHT22;17114;52.314;8.910;2023-12-22T11:23:05;6.50;99.90
30308;DHT22;17114;52.314;8.910;2023-12-22T11:25:34;6.40;99.90
30308;DHT22;17114;52.314;8.910;2023-12-22T11:28:04;6.60;99.90
30308;DHT22;17114;52.314;8.910;2023-12-22T11:30:34;6.50;99.90
30308;DHT22;17114;52.314;8.910;2023-12-22T11:33:04;6.60;99.90
30308;DHT22;17114;52.314;8.910;2023-12-22T11:35:31;6.60;99.90
30308;DHT22;17114;52.314;8.910;2023-12-22T11:38:01;6.60;99.90
30308;DHT22;17114;52.314;8.910;2023-12-22T11:42:58;6.70;99.90
30308;DHT22;17114;52.314;8.910;2023-12-22T11:45:30;6.70;99.90
30308;DHT22;17114;52.314;8.910;2023-12-22T11:48:08;6.70;99.90
30308;DHT22;17114;52.314;8.910;2023-12-22T11:50:37;6.70;99.90
30308;DHT22;17114;52.314;8.910;2023-12-22T11:53:24;6.70;99.90
30308;DHT22;17114;52.314;8.910;2023-12-22T11:56:02;6.70;99.90
30308;DHT22;17114;52.314;8.910;2023-12-22T11:58:45;6.70;99.90
30308;DHT22;17114;52.314;8.910;2023-12-22T12:01:19;6.70;99.90
30308;DHT22;17114;52.314;8.910;2023-12-22T12:03:55;6.70;99.90
30308;DHT22;17114;52.314;8.910;2023-12-22T12:08:57;6.80;99.90
30308;DHT22;17114;52.314;8.910;2023-12-22T12:14:40;6.80;99.90
30308;DHT22;17114;52.314;8.910;2023-12-22T12:17:08;6.80;99.90
30308;DHT22;17114;52.314;8.910;2023-12-22T12:19:40;6.80;99.90
30308;DHT22;17114;52.314;8.910;2023-12-22T12:22:11;6.80;99.90
30308;DHT22;17114;52.314;8.910;2023-12-22T12:24:41;6.70;99.90
30308;DHT22;17114;52.314;8.910;2023-12-22T12:27:10;6.80;99.90
30308;DHT22;17114;52.314;8.910;2023-12-22T12:29:37;6.80;99.90
30308;DHT22;17114;52.314;8.910;2023-12-22T12:32:06;6.80;99.90
30308;DHT22;17114;52.314;8.910;2023-12-22T12:34:33;6.80;99.90
30308;DHT22;17114;52.314;8.910;2023-12-22T12:37:01;6.80;99.90
30308;DHT22;17114;52.314;8.910;2023-12-22T12:39:30;6.90;99.90
30308;DHT22;17114;52.314;8.910;2023-12-22T12:42:00;6.80;99.90
30308;DHT22;17114;52.314;8.910;2023-12-22T12:44:30;6.80;99.90
30308;DHT22;17114;52.314;8.910;2023-12-22T12:47:11;6.80;99.90
30308;DHT22;17114;52.314;8.910;2023-12-22T12:49:38;6.80;99.90
30308;DHT22;17114;52.314;8.910;2023-12-22T12:52:05;6.80;99.90
30308;DHT22;17114;52.314;8.910;2023-12-22T12:54:38;6.70;99.90
30308;DHT22;17114;52.314;8.910;2023-12-22T12:57:05;6.80;99.90
30308;DHT22;17114;52.314;8.910;2023-12-22T12:59:32;6.70;99.90
30308;DHT22;17114;52.314;8.910;2023-12-22T13:02:00;6.70;99.90
30308;DHT22;17114;52.314;8.910;2023-12-22T13:04:37;6.70;99.90
30308;DHT22;17114;52.314;8.910;2023-12-22T13:07:05;6.70;99.90
30308;DHT22;17114;52.314;8.910;2023-12-22T13:09:33;6.70;99.90
30308;DHT22;17114;52.314;8.910;2023-12-22T13:12:03;6.70;99.90
30308;DHT22;17114;52.314;8.910;2023-12-22T13:14:30;6.70;99.90
30308;DHT22;17114;52.314;8.910;2023-12-22T13:16:58;6.50;99.90
30308;DHT22;17114;52.314;8.910;2023-12-22T13:19:26;6.60;99.90
30308;DHT22;17114;52.314;8.910;2023-12-22T13:21:54;6.60;99.90
30308;DHT22;17114;52.314;8.910;2023-12-22T13:24:22;6.70;99.90
30308;DHT22;17114;52.314;8.910;2023-12-22T13:29:42;6.60;99.90
30308;DHT22;17114;52.314;8.910;2023-12-22T13:32:21;6.50;99.90
30308;DHT22;17114;52.314;8.910;2023-12-22T13:34:52;6.50;99.90
30308;DHT22;17114;52.314;8.910;2023-12-22T13:37:20;6.50;99.90
30308;DHT22;17114;52.314;8.910;2023-12-22T13:39:48;6.50;99.90
30308;DHT22;17114;52.314;8.910;2023-12-22T13:42:20;6.40;99.90
30308;DHT22;17114;52.314;8.910;2023-12-22T13:44:49;6.50;99.90
30308;DHT22;17114;52.314;8.910;2023-12-22T13:47:17;6.50;99.90
30308;DHT22;17114;52.314;8.910;2023-12-22T13:49:45;6.60;99.90
30308;DHT22;17114;52.314;8.910;2023-12-22T13:52:26;6.50;99.90
30308;DHT22;17114;52.314;8.910;2023-12-22T13:54:54;6.60;99.90
30308;DHT22;17114;52.314;8.910;2023-12-22T13:57:23;6.50;99.90
30308;DHT22;17114;52.314;8.910;2023-12-22T13:59:52;6.60;99.90
30308;DHT22;17114;52.314;8.910;2023-12-22T14:02:21;6.60;99.90
30308;DHT22;17114;52.314;8.910;2023-12-22T14:04:50;6.60;99.90
30308;DHT22;17114;52.314;8.910;2023-12-22T14:07:18;6.60;99.90
30308;DHT22;17114;52.314;8.910;2023-12-22T14:09:46;6.40;99.90
30308;DHT22;17114;52.314;8.910;2023-12-22T14:12:13;6.70;99.90
30308;DHT22;17114;52.314;8.910;2023-12-22T14:14:50;6.40;99.90
30308;DHT22;17114;52.314;8.910;2023-12-22T14:17:17;6.50;99.90
30308;DHT22;17114;52.314;8.910;2023-12-22T14:19:47;6.50;99.90
30308;DHT22;17114;52.314;8.910;2023-12-22T14:22:16;6.50;99.90
30308;DHT22;17114;52.314;8.910;2023-12-22T14:24:44;6.50;99.90
30308;DHT22;17114;52.314;8.910;2023-12-22T14:27:12;6.50;99.90
30308;DHT22;17114;52.314;8.910;2023-12-22T14:29:40;6.50;99.90
30308;DHT22;17114;52.314;8.910;2023-12-22T14:32:07;6.50;99.90
30308;DHT22;17114;52.314;8.910;2023-12-22T14:34:48;6.50;99.90
30308;DHT22;17114;52.314;8.910;2023-12-22T14:37:16;6.50;99.90
30308;DHT22;17114;52.314;8.910;2023-12-22T14:39:44;6.50;99.90
30308;DHT22;17114;52.314;8.910;2023-12-22T14:42:14;6.50;99.90
30308;DHT22;17114;52.314;8.910;2023-12-22T14:44:42;6.50;99.90
30308;DHT22;17114;52.314;8.910;2023-12-22T14:47:13;6.50;99.90
30308;DHT22;17114;52.314;8.910;2023-12-22T14:49:42;6.50;99.90
30308;DHT22;17114;52.314;8.910;2023-12-22T14:52:11;6.50;99.90
30308;DHT22;17114;52.314;8.910;2023-12-22T14:54:38;6.40;99.90
30308;DHT22;17114;52.314;8.910;2023-12-22T14:57:05;6.50;99.90
30308;DHT22;17114;52.314;8.910;2023-12-22T14:59:32;6.30;99.90
30308;DHT22;17114;52.314;8.910;2023-12-22T15:02:00;6.30;99.90
30308;DHT22;17114;52.314;8.910;2023-12-22T15:04:27;6.30;99.90
30308;DHT22;17114;52.314;8.910;2023-12-22T15:06:54;6.20;99.90
30308;DHT22;17114;52.314;8.910;2023-12-22T15:09:27;6.20;99.90
30308;DHT22;17114;52.314;8.910;2023-12-22T15:11:55;6.40;99.90
30308;DHT22;17114;52.314;8.910;2023-12-22T15:14:22;6.20;99.90
30308;DHT22;17114;52.314;8.910;2023-12-22T15:16:50;6.20;99.90
30308;DHT22;17114;52.314;8.910;2023-12-22T15:19:21;6.20;99.90
30308;DHT22;17114;52.314;8.910;2023-12-22T15:21:48;6.20;99.90
30308;DHT22;17114;52.314;8.910;2023-12-22T15:24:15;6.20;99.90
30308;DHT22;17114;52.314;8.910;2023-12-22T15:26:42;6.20;99.90
30308;DHT22;17114;52.314;8.910;2023-12-22T15:29:10;6.30;99.90
30308;DHT22;17114;52.314;8.910;2023-12-22T15:31:37;6.30;99.90
30308;DHT22;17114;52.314;8.910;2023-12-22T15:34:05;6.30;99.90
30308;DHT22;17114;52.314;8.910;2023-12-22T15:36:33;6.30;99.90
30308;DHT22;17114;52.314;8.910;2023-12-22T15:39:01;6.40;99.90
30308;DHT22;17114;52.314;8.910;2023-12-22T15:41:29;6.40;99.90
30308;DHT22;17114;52.314;8.910;2023-12-22T15:43:59;6.40;99.90
30308;DHT22;17114;52.314;8.910;2023-12-22T15:46:27;6.40;99.90
30308;DHT22;17114;52.314;8.910;2023-12-22T15:48:55;6.50;99.90
30308;DHT22;17114;52.314;8.910;2023-12-22T15:51:22;6.50;99.90
30308;DHT22;17114;52.314;8.910;2023-12-22T15:53:50;6.50;99.90
30308;DHT22;17114;52.314;8.910;2023-12-22T15:56:17;6.50;99.90
30308;DHT22;17114;52.314;8.910;2023-12-22T15:58:45;6.40;99.90
30308;DHT22;17114;52.314;8.910;2023-12-22T16:01:13;6.60;99.90
30308;DHT22;17114;52.314;8.910;2023-12-22T16:03:44;6.60;99.90
30308;DHT22;17114;52.314;8.910;2023-12-22T16:06:18;6.60;99.90
30308;DHT22;17114;52.314;8.910;2023-12-22T16:08:46;6.50;99.90
30308;DHT22;17114;52.314;8.910;2023-12-22T16:11:13;6.60;99.90
30308;DHT22;17114;52.314;8.910;2023-12-22T16:13:41;6.80;99.90
30308;DHT22;17114;52.314;8.910;2023-12-22T16:16:17;6.60;99.90
30308;DHT22;17114;52.314;8.910;2023-12-22T16:18:46;6.60;99.90
30308;DHT22;17114;52.314;8.910;2023-12-22T16:21:13;6.60;99.90
30308;DHT22;17114;52.314;8.910;2023-12-22T16:23:42;6.60;99.90
30308;DHT22;17114;52.314;8.910;2023-12-22T16:26:09;6.60;99.90
30308;DHT22;17114;52.314;8.910;2023-12-22T16:28:37;6.60;99.90
30308;DHT22;17114;52.314;8.910;2023-12-22T16:31:07;6.60;99.90
30308;DHT22;17114;52.314;8.910;2023-12-22T16:33:34;6.60;99.90
30308;DHT22;17114;52.314;8.910;2023-12-22T16:36:02;6.60;99.90
30308;DHT22;17114;52.314;8.910;2023-12-22T16:38:34;6.60;99.90
30308;DHT22;17114;52.314;8.910;2023-12-22T16:41:02;6.60;99.90
30308;DHT22;17114;52.314;8.910;2023-12-22T16:43:34;6.60;99.90
30308;DHT22;17114;52.314;8.910;2023-12-22T16:46:07;6.50;99.90
30308;DHT22;17114;52.314;8.910;2023-12-22T16:48:35;6.60;99.90
30308;DHT22;17114;52.314;8.910;2023-12-22T16:51:03;6.50;99.90
30308;DHT22;17114;52.314;8.910;2023-12-22T16:53:31;6.50;99.90
30308;DHT22;17114;52.314;8.910;2023-12-22T16:56:03;6.50;99.90
30308;DHT22;17114;52.314;8.910;2023-12-22T16:58:31;6.50;99.90
30308;DHT22;17114;52.314;8.910;2023-12-22T17:00:59;6.50;99.90
30308;DHT22;17114;52.314;8.910;2023-12-22T17:03:29;6.50;99.90
30308;DHT22;17114;52.314;8.910;2023-12-22T17:05:56;6.50;99.90
30308;DHT22;17114;52.314;8.910;2023-12-22T17:08:23;6.50;99.90
30308;DHT22;17114;52.314;8.910;2023-12-22T17:10:51;6.50;99.90
30308;DHT22;17114;52.314;8.910;2023-12-22T17:13:18;6.50;99.90
30308;DHT22;17114;52.314;8.910;2023-12-22T17:15:45;6.50;99.90
30308;DHT22;17114;52.314;8.910;2023-12-22T17:18:12;6.60;99.90
30308;DHT22;17114;52.314;8.910;2023-12-22T17:20:39;6.50;99.90
30308;DHT22;17114;52.314;8.910;2023-12-22T17:23:06;6.50;99.90
30308;DHT22;17114;52.314;8.910;2023-12-22T17:25:33;6.50;99.90
30308;DHT22;17114;52.314;8.910;2023-12-22T17:28:09;6.60;99.90
30308;DHT22;17114;52.314;8.910;2023-12-22T17:30:36;6.70;99.90
30308;DHT22;17114;52.314;8.910;2023-12-22T17:33:04;6.70;99.90
30308;DHT22;17114;52.314;8.910;2023-12-22T17:35:31;6.80;99.90
30308;DHT22;17114;52.314;8.910;2023-12-22T17:37:58;6.70;99.90
30308;DHT22;17114;52.314;8.910;2023-12-22T17:40:25;6.80;99.90
30308;DHT22;17114;52.314;8.910;2023-12-22T17:42:52;6.80;99.90
30308;DHT22;17114;52.314;8.910;2023-12-22T17:45:20;6.70;99.90
30308;DHT22;17114;52.314;8.910;2023-12-22T17:47:46;6.70;99.90
30308;DHT22;17114;52.314;8.910;2023-12-22T17:50:14;6.70;99.90
30308;DHT22;17114;52.314;8.910;2023-12-22T17:52:41;6.80;99.90
30308;DHT22;17114;52.314;8.910;2023-12-22T17:55:08;6.70;99.90
30308;DHT22;17114;52.314;8.910;2023-12-22T17:57:35;6.80;99.90
30308;DHT22;17114;52.314;8.910;2023-12-22T18:00:02;6.80;99.90
30308;DHT22;17114;52.314;8.910;2023-12-22T18:02:30;6.80;99.90
30308;DHT22;17114;52.314;8.910;2023-12-22T18:04:57;6.80;99.90
30308;DHT22;17114;52.314;8.910;2023-12-22T18:07:24;6.80;99.90
30308;DHT22;17114;52.314;8.910;2023-12-22T18:09:51;6.80;99.90
30308;DHT22;17114;52.314;8.910;2023-12-22T18:12:18;6.90;99.90
30308;DHT22;17114;52.314;8.910;2023-12-22T18:14:45;6.90;99.90
30308;DHT22;17114;52.314;8.910;2023-12-22T18:17:13;6.90;99.90
30308;DHT22;17114;52.314;8.910;2023-12-22T18:19:40;7.00;99.90
30308;DHT22;17114;52.314;8.910;2023-12-22T18:22:08;7.00;99.90
30308;DHT22;17114;52.314;8.910;2023-12-22T18:24:35;7.00;99.90
30308;DHT22;17114;52.314;8.910;2023-12-22T18:27:02;7.00;99.90
30308;DHT22;17114;52.314;8.910;2023-12-22T18:29:29;7.00;99.90
30308;DHT22;17114;52.314;8.910;2023-12-22T18:31:59;7.10;99.90
30308;DHT22;17114;52.314;8.910;2023-12-22T18:34:27;7.10;99.90
30308;DHT22;17114;52.314;8.910;2023-12-22T18:36:54;7.10;99.90
30308;DHT22;17114;52.314;8.910;2023-12-22T18:39:21;7.10;99.90
30308;DHT22;17114;52.314;8.910;2023-12-22T18:41:48;7.10;99.90
30308;DHT22;17114;52.314;8.910;2023-12-22T18:44:16;7.10;99.90
30308;DHT22;17114;52.314;8.910;2023-12-22T18:46:43;7.00;99.90
30308;DHT22;17114;52.314;8.910;2023-12-22T18:49:11;7.00;99.90
30308;DHT22;17114;52.314;8.910;2023-12-22T18:51:40;7.00;99.90
30308;DHT22;17114;52.314;8.910;2023-12-22T18:54:08;7.00;99.90
30308;DHT22;17114;52.314;8.910;2023-12-22T18:56:38;7.00;99.90
30308;DHT22;17114;52.314;8.910;2023-12-22T18:59:05;7.00;99.90
30308;DHT22;17114;52.314;8.910;2023-12-22T19:01:32;7.00;99.90
30308;DHT22;17114;52.314;8.910;2023-12-22T19:04:17;7.00;99.90
30308;DHT22;17114;52.314;8.910;2023-12-22T19:06:44;7.00;99.90
30308;DHT22;17114;52.314;8.910;2023-12-22T19:09:32;6.90;99.90
30308;DHT22;17114;52.314;8.910;2023-12-22T19:12:18;6.90;99.90
30308;DHT22;17114;52.314;8.910;2023-12-22T19:14:46;6.80;99.90
30308;DHT22;17114;52.314;8.910;2023-12-22T19:17:13;6.80;99.90
30308;DHT22;17114;52.314;8.910;2023-12-22T19:19:42;6.70;99.90
30308;DHT22;17114;52.314;8.910;2023-12-22T19:22:10;6.60;99.90
30308;DHT22;17114;52.314;8.910;2023-12-22T19:24:37;6.50;99.90
30308;DHT22;17114;52.314;8.910;2023-12-22T19:27:04;6.50;99.90
30308;DHT22;17114;52.314;8.910;2023-12-22T19:29:32;6.40;99.90
30308;DHT22;17114;52.314;8.910;2023-12-22T19:32:00;6.30;99.90
30308;DHT22;17114;52.314;8.910;2023-12-22T19:34:28;6.30;99.90
30308;DHT22;17114;52.314;8.910;2023-12-22T19:36:56;6.30;99.90
30308;DHT22;17114;52.314;8.910;2023-12-22T19:39:23;6.30;99.90
30308;DHT22;17114;52.314;8.910;2023-12-22T19:41:50;6.30;99.90
30308;DHT22;17114;52.314;8.910;2023-12-22T19:44:18;6.30;99.90
30308;DHT22;17114;52.314;8.910;2023-12-22T19:46:45;6.30;99.90
30308;DHT22;17114;52.314;8.910;2023-12-22T19:49:12;6.40;99.90
30308;DHT22;17114;52.314;8.910;2023-12-22T19:51:39;6.40;99.90
30308;DHT22;17114;52.314;8.910;2023-12-22T19:54:07;6.40;99.90
30308;DHT22;17114;52.314;8.910;2023-12-22T19:56:34;6.40;99.90
30308;DHT22;17114;52.314;8.910;2023-12-22T19:59:01;6.40;99.90
30308;DHT22;17114;52.314;8.910;2023-12-22T20:01:28;6.40;99.90
30308;DHT22;17114;52.314;8.910;2023-12-22T20:03:56;6.30;99.90
30308;DHT22;17114;52.314;8.910;2023-12-22T20:06:23;6.40;99.90
30308;DHT22;17114;52.314;8.910;2023-12-22T20:08:50;6.30;99.90
30308;DHT22;17114;52.314;8.910;2023-12-22T20:11:17;6.30;99.90
30308;DHT22;17114;52.314;8.910;2023-12-22T20:13:44;6.20;99.90
30308;DHT22;17114;52.314;8.910;2023-12-22T20:16:11;6.20;99.90
30308;DHT22;17114;52.314;8.910;2023-12-22T20:18:39;6.30;99.90
30308;DHT22;17114;52.314;8.910;2023-12-22T20:21:09;6.20;99.90
30308;DHT22;17114;52.314;8.910;2023-12-22T20:23:37;6.20;99.90
30308;DHT22;17114;52.314;8.910;2023-12-22T20:26:04;6.20;99.90
30308;DHT22;17114;52.314;8.910;2023-12-22T20:28:31;6.10;99.90
30308;DHT22;17114;52.314;8.910;2023-12-22T20:31:00;6.10;99.90
30308;DHT22;17114;52.314;8.910;2023-12-22T20:33:27;6.10;99.90
30308;DHT22;17114;52.314;8.910;2023-12-22T20:35:54;6.10;99.90
30308;DHT22;17114;52.314;8.910;2023-12-22T20:38:21;6.00;99.90
30308;DHT22;17114;52.314;8.910;2023-12-22T20:40:48;6.00;99.90
30308;DHT22;17114;52.314;8.910;2023-12-22T20:43:15;6.00;99.90
30308;DHT22;17114;52.314;8.910;2023-12-22T20:45:42;5.90;99.90
30308;DHT22;17114;52.314;8.910;2023-12-22T20:48:11;6.10;99.90
30308;DHT22;17114;52.314;8.910;2023-12-22T20:50:38;5.90;99.90
30308;DHT22;17114;52.314;8.910;2023-12-22T20:53:06;5.90;99.90
30308;DHT22;17114;52.314;8.910;2023-12-22T20:55:35;5.90;99.90
30308;DHT22;17114;52.314;8.910;2023-12-22T20:58:02;5.90;99.90
30308;DHT22;17114;52.314;8.910;2023-12-22T21:00:30;5.90;99.90
30308;DHT22;17114;52.314;8.910;2023-12-22T21:02:57;5.90;99.90
30308;DHT22;17114;52.314;8.910;2023-12-22T21:05:25;5.90;99.90
30308;DHT22;17114;52.314;8.910;2023-12-22T21:07:53;5.90;99.90
30308;DHT22;17114;52.314;8.910;2023-12-22T21:10:20;6.00;99.90
30308;DHT22;17114;52.314;8.910;2023-12-22T21:12:48;5.90;99.90
30308;DHT22;17114;52.314;8.910;2023-12-22T21:15:16;5.90;99.90
30308;DHT22;17114;52.314;8.910;2023-12-22T21:17:42;5.90;99.90
30308;DHT22;17114;52.314;8.910;2023-12-22T21:20:13;5.90;99.90
30308;DHT22;17114;52.314;8.910;2023-12-22T21:22:42;5.90;99.90
30308;DHT22;17114;52.314;8.910;2023-12-22T21:25:10;5.90;99.90
30308;DHT22;17114;52.314;8.910;2023-12-22T21:27:37;5.90;99.90
30308;DHT22;17114;52.314;8.910;2023-12-22T21:30:05;5.90;99.90
30308;DHT22;17114;52.314;8.910;2023-12-22T21:32:33;5.90;99.90
30308;DHT22;17114;52.314;8.910;2023-12-22T21:35:00;5.90;99.90
30308;DHT22;17114;52.314;8.910;2023-12-22T21:37:27;5.80;99.90
30308;DHT22;17114;52.314;8.910;2023-12-22T21:39:54;5.80;99.90
30308;DHT22;17114;52.314;8.910;2023-12-22T21:42:22;5.70;99.90
30308;DHT22;17114;52.314;8.910;2023-12-22T21:44:52;5.70;99.90
30308;DHT22;17114;52.314;8.910;2023-12-22T21:47:23;5.70;99.90
30308;DHT22;17114;52.314;8.910;2023-12-22T21:49:53;5.60;99.90
30308;DHT22;17114;52.314;8.910;2023-12-22T21:52:21;5.60;99.90
30308;DHT22;17114;52.314;8.910;2023-12-22T21:54:54;5.60;99.90
30308;DHT22;17114;52.314;8.910;2023-12-22T21:57:21;5.50;99.90
30308;DHT22;17114;52.314;8.910;2023-12-22T21:59:48;5.60;99.90
30308;DHT22;17114;52.314;8.910;2023-12-22T22:02:16;5.50;99.90
30308;DHT22;17114;52.314;8.910;2023-12-22T22:04:44;5.30;99.90
30308;DHT22;17114;52.314;8.910;2023-12-22T22:07:11;5.20;99.90
30308;DHT22;17114;52.314;8.910;2023-12-22T22:09:39;5.30;99.90
30308;DHT22;17114;52.314;8.910;2023-12-22T22:12:06;5.30;99.90
30308;DHT22;17114;52.314;8.910;2023-12-22T22:14:33;5.20;99.90
30308;DHT22;17114;52.314;8.910;2023-12-22T22:17:00;5.20;99.90
30308;DHT22;17114;52.314;8.910;2023-12-22T22:19:27;5.10;99.90
30308;DHT22;17114;52.314;8.910;2023-12-22T22:21:54;5.10;99.90
30308;DHT22;17114;52.314;8.910;2023-12-22T22:24:21;5.10;99.90
30308;DHT22;17114;52.314;8.910;2023-12-22T22:26:48;5.00;99.90
30308;DHT22;17114;52.314;8.910;2023-12-22T22:29:15;4.90;99.90
30308;DHT22;17114;52.314;8.910;2023-12-22T22:31:42;4.90;99.90
30308;DHT22;17114;52.314;8.910;2023-12-22T22:34:10;5.00;99.90
30308;DHT22;17114;52.314;8.910;2023-12-22T22:36:37;4.90;99.90
30308;DHT22;17114;52.314;8.910;2023-12-22T22:39:04;4.90;99.90
30308;DHT22;17114;52.314;8.910;2023-12-22T22:41:33;4.80;99.90
30308;DHT22;17114;52.314;8.910;2023-12-22T22:44:00;4.80;99.90
30308;DHT22;17114;52.314;8.910;2023-12-22T22:46:27;4.90;99.90
30308;DHT22;17114;52.314;8.910;2023-12-22T22:48:54;4.70;99.90
30308;DHT22;17114;52.314;8.910;2023-12-22T22:51:25;4.70;99.90
30308;DHT22;17114;52.314;8.910;2023-12-22T22:53:53;4.70;99.90
30308;DHT22;17114;52.314;8.910;2023-12-22T22:56:20;4.80;99.90
30308;DHT22;17114;52.314;8.910;2023-12-22T22:58:47;4.70;99.90
30308;DHT22;17114;52.314;8.910;2023-12-22T23:01:14;4.80;99.90
30308;DHT22;17114;52.314;8.910;2023-12-22T23:03:42;4.90;99.90
30308;DHT22;17114;52.314;8.910;2023-12-22T23:06:09;4.90;99.90
30308;DHT22;17114;52.314;8.910;2023-12-22T23:08:36;4.50;99.90
30308;DHT22;17114;52.314;8.910;2023-12-22T23:11:03;4.40;99.90
30308;DHT22;17114;52.314;8.910;2023-12-22T23:13:31;4.20;99.90
30308;DHT22;17114;52.314;8.910;2023-12-22T23:15:58;4.10;99.90
30308;DHT22;17114;52.314;8.910;2023-12-22T23:18:25;4.00;99.90
30308;DHT22;17114;52.314;8.910;2023-12-22T23:20:52;4.00;99.90
30308;DHT22;17114;52.314;8.910;2023-12-22T23:23:20;3.90;99.90
30308;DHT22;17114;52.314;8.910;2023-12-22T23:25:47;3.90;99.90
30308;DHT22;17114;52.314;8.910;2023-12-22T23:28:15;3.90;99.90
